Time;durP1;ratioP1;P1;durP2;ratioP2;P2;SDS_P1;SDS_P2;PMS_P1;PMS_P2;Temp;Humidity;BMP_temperature;BMP_pressure;BME280_temperature;BME280_humidity;BME280_pressure;Samples;Min_cycle;Max_cycle;Signal;HPM_P1;HPM_P2
2021/05/12 00:01:31;;;;;;;2.43;2.23;;;25.70;60.80;;;;;;4936078;29;20447;-88
2021/05/12 00:03:57;;;;;;;2.27;2.07;;;25.70;60.80;;;;;;4935917;29;20452;-88
2021/05/12 00:06:24;;;;;;;1.70;1.53;;;25.70;60.90;;;;;;4935892;29;20447;-87
2021/05/12 00:08:51;;;;;;;1.77;1.67;;;25.70;60.80;;;;;;4936225;29;20459;-88
2021/05/12 00:11:17;;;;;;;1.83;1.73;;;25.70;60.90;;;;;;4936535;29;20521;-88
2021/05/12 00:13:44;;;;;;;2.00;1.90;;;25.70;60.80;;;;;;4940106;29;20457;-88
2021/05/12 00:16:10;;;;;;;2.30;2.20;;;25.70;60.90;;;;;;4939695;29;20454;-88
2021/05/12 00:18:39;;;;;;;1.93;1.83;;;25.70;60.90;;;;;;4939645;29;20629;-88
2021/05/12 00:21:08;;;;;;;2.00;1.60;;;25.70;60.80;;;;;;4939413;29;20981;-88
2021/05/12 00:23:46;;;;;;;1.90;1.80;;;25.70;60.90;;;;;;4939506;29;20458;-88
2021/05/12 00:26:13;;;;;;;1.90;1.80;;;25.70;60.90;;;;;;4939903;29;20957;-88
2021/05/12 00:28:39;;;;;;;2.30;2.10;;;25.70;60.90;;;;;;4939710;29;20941;-88
2021/05/12 00:31:05;;;;;;;2.10;1.90;;;25.70;60.90;;;;;;4939436;29;20447;-88
2021/05/12 00:33:32;;;;;;;2.10;2.00;;;25.70;60.90;;;;;;4939582;29;20457;-88
2021/05/12 00:35:58;;;;;;;1.60;1.50;;;25.70;60.90;;;;;;4939159;29;20529;-88
2021/05/12 00:38:24;;;;;;;1.80;1.70;;;25.70;60.90;;;;;;4939230;29;20497;-88
2021/05/12 00:40:51;;;;;;;1.97;1.87;;;25.70;60.90;;;;;;4939129;29;20546;-88
2021/05/12 00:43:18;;;;;;;2.07;1.97;;;25.60;60.80;;;;;;4939256;29;20871;-88
2021/05/12 00:45:44;;;;;;;1.70;1.60;;;25.70;60.90;;;;;;4939165;29;20548;-88
2021/05/12 00:48:10;;;;;;;1.90;1.80;;;25.70;60.90;;;;;;4939296;29;20995;-88
2021/05/12 00:50:37;;;;;;;2.00;1.90;;;25.60;60.90;;;;;;4938809;29;20496;-88
2021/05/12 00:53:05;;;;;;;2.00;1.90;;;25.70;61.00;;;;;;4939126;29;20450;-88
2021/05/12 00:55:31;;;;;;;2.03;1.70;;;25.60;60.90;;;;;;4939150;29;20956;-89
2021/05/12 00:57:58;;;;;;;1.97;1.87;;;25.60;60.80;;;;;;4938945;29;20699;-88
2021/05/12 01:00:28;;;;;;;2.23;2.13;;;25.60;60.70;;;;;;4938942;29;20449;-88
2021/05/12 01:02:54;;;;;;;1.87;1.77;;;25.60;60.80;;;;;;4938726;29;20458;-88
2021/05/12 01:05:27;;;;;;;2.03;1.83;;;25.60;60.80;;;;;;4938864;29;20516;-88
2021/05/12 01:07:53;;;;;;;2.13;2.03;;;25.60;60.80;;;;;;4938976;29;20542;-88
2021/05/12 01:10:20;;;;;;;2.10;2.00;;;25.60;60.80;;;;;;4938693;29;21081;-88
2021/05/12 01:12:47;;;;;;;2.10;2.00;;;25.60;60.80;;;;;;4938953;29;20816;-88
2021/05/12 01:15:13;;;;;;;1.97;1.87;;;25.60;60.80;;;;;;4938685;29;21019;-88
2021/05/12 01:17:51;;;;;;;2.10;2.00;;;25.70;60.90;;;;;;4938714;29;20474;-88
2021/05/12 01:20:18;;;;;;;2.10;2.00;;;25.60;60.90;;;;;;4939267;29;20462;-88
2021/05/12 01:22:46;;;;;;;2.30;2.20;;;25.60;60.90;;;;;;4938138;29;20466;-89
2021/05/12 01:25:13;;;;;;;2.30;2.20;;;25.60;60.80;;;;;;4938856;29;20457;-88
2021/05/12 01:27:39;;;;;;;2.97;2.80;;;25.60;60.80;;;;;;4938275;29;20446;-88
2021/05/12 01:30:08;;;;;;;1.73;1.63;;;25.60;60.80;;;;;;4938421;29;20446;-88
2021/05/12 01:32:36;;;;;;;2.20;2.10;;;25.60;60.80;;;;;;4938369;29;20446;-88
2021/05/12 01:35:09;;;;;;;2.40;2.20;;;25.60;60.90;;;;;;4938234;29;20902;-88
2021/05/12 01:37:36;;;;;;;2.20;2.10;;;25.60;60.90;;;;;;4937916;29;20478;-88
2021/05/12 01:40:04;;;;;;;2.30;2.20;;;25.60;60.90;;;;;;4938112;29;20450;-88
2021/05/12 01:42:30;;;;;;;1.90;1.80;;;25.60;60.90;;;;;;4938322;29;20486;-88
2021/05/12 01:45:04;;;;;;;2.43;2.30;;;25.60;60.90;;;;;;4938673;29;20805;-88
2021/05/12 01:47:30;;;;;;;2.23;2.13;;;25.60;60.90;;;;;;4938147;29;20452;-88
2021/05/12 01:49:59;;;;;;;3.07;2.87;;;25.60;60.90;;;;;;4937778;29;20824;-88
2021/05/12 01:52:25;;;;;;;2.47;2.37;;;25.60;60.90;;;;;;4938116;29;20446;-88
2021/05/12 01:54:52;;;;;;;2.90;2.70;;;25.60;60.90;;;;;;4938050;29;20538;-88
2021/05/12 01:57:19;;;;;;;2.20;2.10;;;25.60;60.90;;;;;;4937677;29;20455;-88
2021/05/12 01:59:45;;;;;;;2.20;2.10;;;25.60;60.90;;;;;;4937575;29;20453;-88
2021/05/12 02:02:12;;;;;;;3.10;2.90;;;25.60;61.80;;;;;;4937550;29;20896;-88
2021/05/12 02:04:39;;;;;;;2.00;1.90;;;25.60;60.90;;;;;;4937787;29;20446;-88
2021/05/12 02:07:07;;;;;;;2.90;2.20;;;25.60;60.90;;;;;;4937417;29;20451;-88
2021/05/12 02:09:38;;;;;;;2.70;2.57;;;25.60;60.90;;;;;;4937462;29;20546;-88
2021/05/12 02:12:05;;;;;;;2.63;2.50;;;25.60;60.90;;;;;;4937672;29;20451;-88
2021/05/12 02:14:34;;;;;;;2.37;2.27;;;25.60;60.90;;;;;;4937257;29;20501;-88
2021/05/12 02:17:01;;;;;;;2.10;2.00;;;25.60;60.90;;;;;;4936981;29;20944;-88
2021/05/12 02:19:27;;;;;;;2.57;2.47;;;25.60;60.90;;;;;;4937144;29;20893;-88
2021/05/12 02:21:53;;;;;;;2.63;2.43;;;25.60;60.90;;;;;;4937094;29;20805;-88
2021/05/12 02:24:20;;;;;;;2.40;2.27;;;25.50;60.80;;;;;;4937201;29;20442;-88
2021/05/12 02:26:46;;;;;;;2.77;2.57;;;25.50;60.80;;;;;;4937091;29;20530;-88
2021/05/12 02:29:13;;;;;;;2.50;2.40;;;25.50;60.90;;;;;;4937384;29;20446;-88
2021/05/12 02:31:40;;;;;;;2.57;2.37;;;25.50;60.80;;;;;;4937334;29;20451;-88
2021/05/12 02:34:06;;;;;;;3.00;2.80;;;25.50;60.80;;;;;;4937028;29;20534;-89
2021/05/12 02:36:32;;;;;;;2.30;2.20;;;25.50;60.90;;;;;;4936827;29;20478;-88
2021/05/12 02:38:59;;;;;;;3.03;2.83;;;25.50;60.90;;;;;;4936797;29;20501;-88
2021/05/12 02:41:25;;;;;;;2.43;2.33;;;25.50;60.80;;;;;;4937217;29;20536;-88
2021/05/12 02:43:51;;;;;;;2.43;2.33;;;25.50;60.90;;;;;;4936834;29;20443;-88
2021/05/12 02:46:18;;;;;;;2.97;2.83;;;25.50;60.80;;;;;;4936766;29;20451;-88
2021/05/12 02:48:46;;;;;;;2.63;2.53;;;25.50;60.90;;;;;;4937039;29;20561;-88
2021/05/12 02:51:12;;;;;;;2.53;2.43;;;25.50;60.90;;;;;;4937007;29;20533;-88
2021/05/12 02:53:38;;;;;;;2.87;2.77;;;25.50;60.80;;;;;;4936940;29;20780;-87
2021/05/12 02:56:06;;;;;;;2.50;2.40;;;25.50;60.90;;;;;;4936818;29;20541;-88
2021/05/12 02:58:32;;;;;;;2.97;2.77;;;25.50;60.90;;;;;;4936528;29;20491;-88
2021/05/12 03:00:58;;;;;;;2.60;2.40;;;25.50;60.80;;;;;;4936931;29;20552;-88
2021/05/12 03:03:25;;;;;;;2.73;2.53;;;25.50;60.90;;;;;;4936522;29;20439;-88
2021/05/12 03:05:52;;;;;;;2.50;2.40;;;25.50;60.90;;;;;;4936811;29;20501;-89
2021/05/12 03:08:18;;;;;;;2.53;2.40;;;25.50;60.90;;;;;;4936678;29;20826;-88
2021/05/12 03:10:44;;;;;;;2.50;2.40;;;25.50;60.90;;;;;;4936487;29;20477;-88
2021/05/12 03:13:11;;;;;;;2.50;2.40;;;25.50;60.90;;;;;;4936435;29;20971;-88
2021/05/12 03:15:38;;;;;;;2.90;2.70;;;25.50;60.80;;;;;;4936643;29;20905;-88
2021/05/12 03:18:05;;;;;;;2.27;2.17;;;25.50;60.80;;;;;;4936692;29;20485;-88
2021/05/12 03:20:32;;;;;;;2.77;2.57;;;25.50;60.80;;;;;;4936578;29;20477;-88
2021/05/12 03:23:00;;;;;;;2.27;2.07;;;25.60;61.00;;;;;;4936753;29;20451;-87
2021/05/12 03:25:27;;;;;;;2.70;2.50;;;25.50;60.90;;;;;;4938698;29;20504;-88
2021/05/12 03:27:54;;;;;;;2.60;2.40;;;25.50;60.90;;;;;;4939240;29;20466;-88
2021/05/12 03:30:23;;;;;;;2.60;2.17;;;25.50;60.80;;;;;;4939384;29;20504;-88
2021/05/12 03:32:50;;;;;;;2.70;2.60;;;25.50;60.80;;;;;;4936950;29;20469;-88
2021/05/12 03:35:17;;;;;;;2.57;2.37;;;25.50;60.80;;;;;;4937029;29;20449;-88
2021/05/12 03:37:44;;;;;;;3.00;2.80;;;25.50;60.90;;;;;;4936550;29;21011;-89
2021/05/12 03:40:12;;;;;;;2.40;2.30;;;25.50;60.90;;;;;;4936742;29;20574;-88
2021/05/12 03:42:38;;;;;;;3.00;2.80;;;25.50;60.90;;;;;;4936574;29;20447;-88
2021/05/12 03:45:06;;;;;;;2.53;2.40;;;25.50;60.80;;;;;;4936320;29;20461;-88
2021/05/12 03:47:33;;;;;;;2.33;2.23;;;25.50;60.90;;;;;;4939166;29;20442;-88
2021/05/12 03:49:59;;;;;;;2.67;2.57;;;25.50;60.90;;;;;;4940016;29;20837;-88
2021/05/12 03:52:26;;;;;;;2.97;2.77;;;25.50;60.40;;;;;;4940356;29;20824;-89
2021/05/12 03:54:52;;;;;;;2.23;2.13;;;25.50;60.90;;;;;;4940234;29;20453;-88
2021/05/12 03:57:19;;;;;;;2.80;2.60;;;25.60;60.90;;;;;;4922814;29;20449;-88
2021/05/12 03:59:46;;;;;;;2.70;2.50;;;25.50;60.90;;;;;;4939834;29;21349;-89
2021/05/12 04:02:12;;;;;;;2.20;2.10;;;25.50;60.90;;;;;;4940028;29;20454;-89
2021/05/12 04:04:38;;;;;;;2.80;2.60;;;25.40;60.80;;;;;;4940130;29;20450;-88
2021/05/12 04:07:05;;;;;;;2.93;2.73;;;25.40;60.80;;;;;;4939887;29;20447;-88
2021/05/12 04:09:31;;;;;;;3.13;2.93;;;25.40;60.80;;;;;;4939880;29;20789;-88
2021/05/12 04:11:57;;;;;;;2.67;2.57;;;25.50;60.80;;;;;;4939931;29;20918;-89
2021/05/12 04:14:25;;;;;;;2.50;2.40;;;25.50;60.90;;;;;;4939725;29;20534;-88
2021/05/12 04:16:52;;;;;;;3.37;2.50;;;25.50;60.90;;;;;;4939755;29;20968;-89
2021/05/12 04:19:19;;;;;;;2.60;2.40;;;25.40;60.70;;;;;;4939577;29;20980;-88
2021/05/12 04:21:45;;;;;;;3.23;3.03;;;25.40;60.70;;;;;;4939661;29;20929;-89
2021/05/12 04:24:11;;;;;;;2.50;2.30;;;25.40;60.70;;;;;;4939744;29;20450;-89
2021/05/12 04:26:38;;;;;;;2.83;2.63;;;25.40;61.50;;;;;;4939564;29;20450;-89
2021/05/12 04:29:05;;;;;;;2.77;2.67;;;25.40;60.70;;;;;;4939268;29;20466;-89
2021/05/12 04:31:33;;;;;;;2.53;2.43;;;25.40;60.70;;;;;;4939261;29;20454;-89
2021/05/12 04:34:00;;;;;;;2.63;2.43;;;25.40;60.70;;;;;;4939381;29;20634;-89
2021/05/12 04:36:26;;;;;;;2.83;2.63;;;25.40;60.70;;;;;;4938890;29;20543;-89
2021/05/12 04:38:52;;;;;;;2.53;2.33;;;25.40;60.70;;;;;;4938989;29;20494;-89
2021/05/12 04:41:19;;;;;;;2.93;2.73;;;25.40;60.60;;;;;;4939050;29;20940;-89
2021/05/12 04:43:45;;;;;;;2.30;2.20;;;25.40;60.60;;;;;;4939367;29;20475;-89
2021/05/12 04:46:12;;;;;;;2.60;2.50;;;25.40;60.70;;;;;;4939167;29;20450;-89
2021/05/12 04:48:39;;;;;;;2.60;2.50;;;25.40;60.70;;;;;;4938991;29;20607;-89
2021/05/12 04:51:05;;;;;;;2.20;2.10;;;25.40;60.60;;;;;;4939087;29;20445;-90
2021/05/12 04:53:32;;;;;;;2.27;2.17;;;25.40;60.60;;;;;;4939101;29;20460;-89
2021/05/12 04:56:00;;;;;;;2.63;2.43;;;25.40;60.60;;;;;;4939005;29;20452;-89
2021/05/12 04:58:27;;;;;;;2.63;2.43;;;25.40;60.60;;;;;;4938803;29;20483;-87
2021/05/12 05:00:53;;;;;;;2.97;2.77;;;25.40;60.60;;;;;;4938797;29;20537;-88
2021/05/12 05:03:19;;;;;;;2.93;2.73;;;25.40;60.60;;;;;;4938748;29;20455;-88
2021/05/12 05:05:47;;;;;;;2.30;2.20;;;25.40;60.60;;;;;;4938638;29;20447;-88
2021/05/12 05:08:14;;;;;;;2.23;2.13;;;25.40;60.60;;;;;;4938823;29;20454;-87
2021/05/12 05:10:40;;;;;;;1.50;1.40;;;25.40;60.50;;;;;;4938787;29;20526;-89
2021/05/12 05:13:07;;;;;;;2.07;1.97;;;25.40;60.20;;;;;;4938493;29;20450;-88
2021/05/12 05:15:33;;;;;;;2.50;2.40;;;25.40;60.20;;;;;;4938437;29;20453;-88
2021/05/12 05:18:00;;;;;;;2.90;2.70;;;25.40;60.20;;;;;;4938258;29;20482;-90
2021/05/12 05:20:28;;;;;;;2.90;2.70;;;25.50;60.40;;;;;;4938407;29;20473;-88
2021/05/12 05:22:57;;;;;;;2.53;2.33;;;25.40;60.30;;;;;;4938297;29;20960;-88
2021/05/12 05:25:23;;;;;;;2.17;2.07;;;25.40;60.30;;;;;;4940694;29;20470;-88
2021/05/12 05:27:50;;;;;;;2.50;2.40;;;25.40;60.30;;;;;;4938025;29;20450;-88
2021/05/12 05:30:16;;;;;;;2.40;2.20;;;25.40;60.30;;;;;;4938194;29;20442;-90
2021/05/12 05:32:43;;;;;;;2.60;2.40;;;25.40;60.30;;;;;;4938210;29;20451;-88
2021/05/12 05:35:10;;;;;;;2.70;2.50;;;25.40;60.40;;;;;;4937892;29;20446;-87
2021/05/12 05:37:42;;;;;;;2.40;2.20;;;25.40;60.30;;;;;;4937769;29;20480;-87
2021/05/12 05:40:11;;;;;;;2.63;2.47;;;25.40;60.40;;;;;;4938235;29;20444;-87
2021/05/12 05:42:37;;;;;;;1.93;1.83;;;25.40;60.40;;;;;;4937943;29;20545;-88
2021/05/12 05:45:04;;;;;;;3.03;2.20;;;25.40;60.40;;;;;;4937937;29;20805;-88
2021/05/12 05:47:31;;;;;;;2.43;2.23;;;25.40;60.40;;;;;;4937769;29;20483;-87
2021/05/12 05:49:57;;;;;;;2.20;2.10;;;25.40;60.40;;;;;;4937824;29;20565;-86
2021/05/12 05:52:23;;;;;;;2.10;2.00;;;25.40;60.40;;;;;;4937895;29;20463;-87
2021/05/12 05:54:50;;;;;;;2.03;1.93;;;25.40;60.30;;;;;;4937745;29;20458;-88
2021/05/12 05:57:17;;;;;;;2.20;2.10;;;25.40;60.30;;;;;;4937790;29;20443;-88
2021/05/12 05:59:43;;;;;;;2.57;2.37;;;25.40;60.30;;;;;;4938072;29;20929;-88
2021/05/12 06:02:10;;;;;;;1.93;1.83;;;25.40;60.30;;;;;;4937712;29;20461;-88
2021/05/12 06:04:36;;;;;;;2.03;1.93;;;25.40;60.10;;;;;;4937985;29;20442;-83
2021/05/12 06:07:03;;;;;;;1.63;1.53;;;25.40;60.00;;;;;;4953226;29;20929;-87
2021/05/12 06:09:29;;;;;;;2.70;2.50;;;25.40;59.90;;;;;;4956204;28;20453;-87
2021/05/12 06:11:56;;;;;;;3.00;2.80;;;25.40;60.10;;;;;;4958434;29;20450;-88
2021/05/12 06:14:23;;;;;;;2.40;2.30;;;25.40;60.30;;;;;;4956629;29;20805;-88
2021/05/12 06:16:50;;;;;;;2.43;2.23;;;25.50;60.50;;;;;;4956706;29;20455;-88
2021/05/12 06:19:16;;;;;;;2.60;2.40;;;25.40;60.50;;;;;;4956428;29;20938;-88
2021/05/12 06:21:42;;;;;;;2.27;2.17;;;25.40;60.40;;;;;;4956959;29;20964;-88
2021/05/12 06:24:09;;;;;;;3.00;2.60;;;25.40;60.40;;;;;;4956604;29;20948;-87
2021/05/12 06:26:37;;;;;;;2.20;2.00;;;25.40;60.40;;;;;;4956705;29;20457;-89
2021/05/12 06:29:04;;;;;;;2.60;2.10;;;25.40;60.40;;;;;;4956451;29;20457;-88
2021/05/12 06:31:31;;;;;;;4.17;1.73;;;25.40;60.20;;;;;;4956721;29;20480;-87
2021/05/12 06:33:59;;;;;;;5.13;2.27;;;25.50;61.30;;;;;;4956644;29;20454;-87
2021/05/12 06:36:26;;;;;;;2.20;2.00;;;25.50;60.50;;;;;;4956283;29;21043;-89
2021/05/12 06:38:52;;;;;;;2.10;2.00;;;25.50;60.40;;;;;;4956070;29;20507;-88
2021/05/12 06:41:19;;;;;;;2.20;2.10;;;25.50;60.60;;;;;;4956298;29;20458;-89
2021/05/12 06:43:45;;;;;;;1.97;1.80;;;25.60;60.80;;;;;;4956563;29;20494;-89
2021/05/12 06:46:11;;;;;;;2.20;2.00;;;25.50;60.40;;;;;;4956078;29;20453;-89
2021/05/12 06:48:38;;;;;;;2.83;2.30;;;25.50;60.40;;;;;;4956260;29;20508;-88
2021/05/12 06:51:05;;;;;;;2.10;2.00;;;25.60;60.60;;;;;;4955730;29;20453;-87
2021/05/12 06:53:34;;;;;;;2.00;1.90;;;25.50;60.30;;;;;;4948087;29;20536;-88
2021/05/12 06:56:01;;;;;;;2.50;1.93;;;25.50;60.50;;;;;;4942905;29;20442;-87
2021/05/12 06:58:28;;;;;;;2.23;2.03;;;25.50;60.30;;;;;;4956842;29;20592;-87
2021/05/12 07:00:55;;;;;;;1.60;1.50;;;25.50;60.10;;;;;;4949116;29;20473;-87
2021/05/12 07:03:23;;;;;;;2.03;1.70;;;25.50;60.10;;;;;;4946590;29;20818;-87
2021/05/12 07:05:52;;;;;;;2.07;1.10;;;25.50;59.90;;;;;;4951909;29;20457;-88
2021/05/12 07:08:18;;;;;;;2.03;1.60;;;25.50;60.00;;;;;;4957929;29;20445;-87
2021/05/12 07:10:45;;;;;;;1.63;1.20;;;25.60;60.00;;;;;;4949572;29;20445;-87
2021/05/12 07:13:12;;;;;;;2.63;1.80;;;25.50;60.00;;;;;;4946846;29;20454;-87
2021/05/12 07:15:39;;;;;;;3.00;2.20;;;25.50;60.10;;;;;;4946768;29;20434;-87
2021/05/12 07:18:06;;;;;;;2.47;2.13;;;25.50;60.40;;;;;;4944258;29;20446;-87
2021/05/12 07:20:32;;;;;;;2.27;2.07;;;25.60;60.50;;;;;;4949481;28;20518;-87
2021/05/12 07:23:04;;;;;;;2.40;2.03;;;25.50;60.30;;;;;;4943313;29;20534;-87
2021/05/12 07:25:31;;;;;;;4.47;2.40;;;25.60;60.60;;;;;;4952577;29;20442;-85
2021/05/12 07:27:57;;;;;;;2.80;1.77;;;25.50;60.40;;;;;;4951258;29;20446;-87
2021/05/12 07:30:26;;;;;;;1.87;1.77;;;25.50;60.10;;;;;;4953801;29;20505;-87
2021/05/12 07:32:53;;;;;;;1.67;1.57;;;25.50;60.00;;;;;;4951347;29;20439;-85
2021/05/12 07:35:19;;;;;;;2.57;1.63;;;25.50;59.80;;;;;;4951543;29;20474;-84
2021/05/12 07:37:48;;;;;;;3.07;2.37;;;25.50;59.80;;;;;;4944875;29;20564;-83
2021/05/12 07:40:16;;;;;;;2.60;2.00;;;25.50;59.80;;;;;;4950226;29;20934;-88
2021/05/12 07:42:47;;;;;;;1.80;1.70;;;25.50;59.90;;;;;;4951396;29;20528;-86
2021/05/12 07:45:14;;;;;;;2.17;1.97;;;25.50;59.80;;;;;;4942823;29;20444;-83
2021/05/12 07:47:41;;;;;;;1.80;1.70;;;25.50;59.80;;;;;;4944008;29;20438;-83
2021/05/12 07:50:10;;;;;;;1.70;1.60;;;25.50;59.80;;;;;;4940552;29;20466;-88
2021/05/12 07:52:36;;;;;;;2.57;1.50;;;25.50;59.80;;;;;;4946903;29;20443;-89
2021/05/12 07:55:04;;;;;;;2.60;1.93;;;25.50;59.60;;;;;;4939097;29;20449;-87
2021/05/12 07:57:32;;;;;;;4.23;1.83;;;25.50;59.50;;;;;;4936969;29;20453;-88
2021/05/12 08:00:00;;;;;;;2.23;1.87;;;25.50;59.50;;;;;;4939845;29;20574;-83
2021/05/12 08:02:27;;;;;;;2.43;2.00;;;25.60;59.70;;;;;;4936461;29;20462;-84
2021/05/12 08:04:53;;;;;;;2.33;2.10;;;25.60;59.70;;;;;;4935986;29;20806;-89
2021/05/12 08:07:19;;;;;;;2.03;1.83;;;25.60;59.70;;;;;;4936096;29;20450;-84
2021/05/12 08:09:46;;;;;;;3.30;1.97;;;25.60;59.70;;;;;;4936192;29;20451;-87
2021/05/12 08:12:12;;;;;;;2.00;1.90;;;25.60;59.70;;;;;;4947293;29;20457;-87
2021/05/12 08:14:39;;;;;;;2.57;1.60;;;25.60;59.70;;;;;;4955776;29;20454;-87
2021/05/12 08:17:05;;;;;;;2.53;1.93;;;25.60;59.70;;;;;;4955124;29;20470;-86
2021/05/12 08:19:32;;;;;;;2.23;1.90;;;25.60;59.70;;;;;;4946385;29;20925;-87
2021/05/12 08:22:02;;;;;;;2.70;2.07;;;25.60;59.70;;;;;;4939525;29;20453;-86
2021/05/12 08:24:28;;;;;;;2.43;1.70;;;25.60;59.70;;;;;;4939186;29;20457;-87
2021/05/12 08:26:54;;;;;;;1.80;1.70;;;25.60;59.70;;;;;;4936983;29;20440;-87
2021/05/12 08:29:20;;;;;;;2.30;2.10;;;25.60;59.70;;;;;;4936896;29;20515;-87
2021/05/12 08:31:48;;;;;;;2.70;1.50;;;25.60;59.70;;;;;;4936571;29;20526;-87
2021/05/12 08:34:14;;;;;;;2.30;2.10;;;25.70;59.70;;;;;;4939618;29;20516;-87
2021/05/12 08:36:40;;;;;;;2.90;1.77;;;25.60;59.70;;;;;;4939348;29;20496;-87
2021/05/12 08:39:08;;;;;;;2.10;2.00;;;25.60;59.70;;;;;;4939593;29;21029;-88
2021/05/12 08:41:35;;;;;;;2.73;2.00;;;25.60;59.70;;;;;;4939629;29;20446;-87
2021/05/12 08:44:02;;;;;;;2.80;1.80;;;25.60;59.60;;;;;;4939078;29;20460;-87
2021/05/12 08:46:30;;;;;;;1.87;1.73;;;25.60;59.60;;;;;;4939169;29;20454;-87
2021/05/12 08:48:59;;;;;;;3.20;2.20;;;25.60;59.60;;;;;;4939351;29;20471;-87
2021/05/12 08:51:26;;;;;;;1.67;1.57;;;25.60;59.60;;;;;;4939118;29;20442;-87
2021/05/12 08:53:54;;;;;;;2.80;2.10;;;25.60;59.50;;;;;;4939057;29;20545;-87
2021/05/12 08:56:21;;;;;;;4.30;3.20;;;25.60;59.50;;;;;;4938968;29;20454;-87
2021/05/12 08:58:47;;;;;;;4.83;4.50;;;25.60;59.10;;;;;;4939055;29;20492;-87
2021/05/12 09:01:14;;;;;;;8.63;5.40;;;25.50;58.50;;;;;;4938750;29;20465;-87
2021/05/12 09:03:41;;;;;;;7.17;5.23;;;25.50;58.30;;;;;;4938930;29;20945;-88
2021/05/12 09:06:09;;;;;;;8.67;5.37;;;25.40;57.90;;;;;;4938894;29;20453;-88
2021/05/12 09:08:36;;;;;;;5.73;3.93;;;25.40;58.20;;;;;;4939398;29;20443;-88
2021/05/12 09:11:03;;;;;;;5.73;5.20;;;25.20;58.20;;;;;;4938885;29;20545;-90
2021/05/12 09:13:33;;;;;;;4.63;4.23;;;25.40;57.70;;;;;;4939173;29;20857;-91
2021/05/12 09:16:22;;;;;;;5.57;4.40;;;25.30;57.90;;;;;;4938754;29;20442;-91
2021/05/12 09:18:50;;;;;;;7.83;3.93;;;25.30;57.90;;;;;;4939065;29;20497;-91
2021/05/12 09:21:17;;;;;;;6.40;4.57;;;25.30;58.10;;;;;;4939194;29;20791;-91
2021/05/12 09:23:44;;;;;;;6.17;4.27;;;25.30;58.50;;;;;;4939738;29;20957;-91
2021/05/12 09:26:12;;;;;;;5.17;4.67;;;25.40;58.40;;;;;;4939272;29;20456;-91
2021/05/12 09:28:39;;;;;;;8.30;3.73;;;25.40;58.20;;;;;;4939293;29;20956;-91
2021/05/12 09:31:11;;;;;;;5.57;3.30;;;25.30;57.80;;;;;;4938680;29;20960;-91
2021/05/12 09:33:43;;;;;;;5.67;3.03;;;25.30;57.90;;;;;;4939289;29;20497;-90
2021/05/12 09:36:26;;;;;;;4.50;2.90;;;25.30;58.10;;;;;;4941416;29;20504;-91
2021/05/12 09:38:54;;;;;;;5.83;2.57;;;25.30;58.20;;;;;;4938768;29;20573;-87
2021/05/12 09:41:31;;;;;;;2.80;2.60;;;25.40;58.40;;;;;;4938364;29;20447;-88
2021/05/12 09:43:58;;;;;;;3.47;2.40;;;25.40;58.80;;;;;;4937602;29;20903;-88
2021/05/12 09:46:25;;;;;;;4.87;2.77;;;25.40;58.60;;;;;;4938360;29;20845;-87
2021/05/12 09:49:13;;;;;;;4.10;2.70;;;25.40;58.70;;;;;;4938037;29;20849;-87
2021/05/12 09:51:42;;;;;;;4.07;3.00;;;25.50;58.90;;;;;;4940781;29;20474;-90
2021/05/12 09:54:12;;;;;;;4.00;2.80;;;25.40;58.60;;;;;;4938517;29;20840;-90
2021/05/12 09:56:40;;;;;;;2.40;2.20;;;25.40;58.30;;;;;;4938162;29;20869;-91
2021/05/12 09:59:09;;;;;;;4.17;2.40;;;25.40;58.90;;;;;;4937921;29;20493;-90
2021/05/12 10:01:49;;;;;;;5.03;2.33;;;25.40;58.30;;;;;;4938042;29;20537;-90
2021/05/12 10:04:28;;;;;;;5.30;3.00;;;25.40;58.30;;;;;;4937830;29;20842;-90
2021/05/12 10:06:56;;;;;;;3.70;2.50;;;25.50;58.40;;;;;;4937983;29;20490;-90
2021/05/12 10:09:24;;;;;;;2.97;2.30;;;25.50;58.50;;;;;;4938026;29;20449;-90
2021/05/12 10:12:02;;;;;;;19.73;2.33;;;25.50;58.70;;;;;;4937617;29;21055;-90
2021/05/12 10:14:28;;;;;;;20.63;6.60;;;25.50;58.80;;;;;;4937926;29;20454;-90
2021/05/12 10:16:56;;;;;;;20.20;8.53;;;25.50;58.90;;;;;;4937825;29;20978;-90
2021/05/12 10:19:22;;;;;;;21.30;8.50;;;25.50;59.00;;;;;;4937605;29;20502;-90
2021/05/12 10:21:48;;;;;;;22.20;7.77;;;25.50;59.20;;;;;;4937496;29;20457;-90
2021/05/12 10:24:15;;;;;;;25.17;8.00;;;25.50;59.40;;;;;;4937463;29;20937;-90
2021/05/12 10:26:43;;;;;;;22.73;8.20;;;25.50;59.70;;;;;;4937565;29;20461;-90
2021/05/12 10:29:12;;;;;;;21.23;8.50;;;25.50;60.10;;;;;;4937565;29;20462;-90
2021/05/12 10:31:38;;;;;;;20.23;8.10;;;25.60;60.20;;;;;;4937473;29;20515;-90
2021/05/12 10:34:04;;;;;;;20.57;7.30;;;25.50;60.30;;;;;;4937206;29;20869;-90
2021/05/12 10:36:31;;;;;;;16.20;6.93;;;25.50;60.50;;;;;;4937154;29;20482;-90
2021/05/12 10:39:00;;;;;;;20.17;6.57;;;25.50;60.70;;;;;;4937305;29;20972;-88
2021/05/12 10:41:40;;;;;;;10.23;4.80;;;25.50;61.50;;;;;;4937261;29;20817;-87
2021/05/12 10:44:13;;;;;;;7.33;4.63;;;25.60;61.20;;;;;;4941081;29;20454;-87
2021/05/12 10:46:59;;;;;;;6.40;4.73;;;25.60;61.00;;;;;;4944749;29;20450;-87
2021/05/12 10:49:26;;;;;;;9.67;4.33;;;25.60;60.80;;;;;;4940042;29;20475;-87
2021/05/12 10:51:53;;;;;;;9.13;3.93;;;25.60;60.70;;;;;;4939873;29;20475;-88
2021/05/12 10:54:43;;;;;;;5.67;3.90;;;25.60;60.70;;;;;;4940188;29;20446;-88
2021/05/12 10:57:11;;;;;;;10.50;4.47;;;25.60;60.70;;;;;;4943489;29;20800;-90
2021/05/12 10:59:41;;;;;;;10.13;6.10;;;25.60;60.70;;;;;;4942462;29;20481;-89
2021/05/12 11:02:08;;;;;;;8.40;7.60;;;25.60;60.50;;;;;;4942102;29;20815;-89
2021/05/12 11:04:35;;;;;;;7.27;6.60;;;25.50;58.20;;;;;;4939985;29;20465;-90
2021/05/12 11:07:10;;;;;;;7.07;6.53;;;25.50;58.30;;;;;;4938301;29;20548;-90
2021/05/12 11:09:47;;;;;;;7.67;7.07;;;25.60;58.50;;;;;;4937513;29;20984;-89
2021/05/12 11:12:31;;;;;;;6.97;6.40;;;25.60;58.20;;;;;;4938958;29;20481;-90
2021/05/12 11:15:04;;;;;;;9.03;8.23;;;25.50;57.20;;;;;;4936670;29;20918;-86
2021/05/12 11:17:45;;;;;;;9.97;9.03;;;25.50;56.40;;;;;;4936793;29;20458;-86
2021/05/12 11:20:17;;;;;;;10.47;8.60;;;25.50;56.70;;;;;;4936452;29;21011;-89
2021/05/12 11:22:45;;;;;;;9.23;8.53;;;25.40;57.40;;;;;;4936718;29;20455;-89
2021/05/12 11:25:19;;;;;;;11.90;8.90;;;25.40;57.60;;;;;;4936732;29;20461;-91
2021/05/12 11:28:57;;;;;;;9.47;8.33;;;25.40;58.40;;;;;;4937210;29;20450;-86
2021/05/12 11:31:38;;;;;;;9.60;6.73;;;25.40;57.90;;;;;;4936257;29;20987;-85
2021/05/12 11:34:05;;;;;;;6.87;6.20;;;25.40;58.30;;;;;;4936180;29;21017;-85
2021/05/12 11:36:36;;;;;;;6.20;5.60;;;25.40;58.60;;;;;;4936730;29;20486;-90
2021/05/12 11:39:04;;;;;;;6.67;5.57;;;25.40;58.80;;;;;;4939087;29;20584;-90
2021/05/12 11:41:30;;;;;;;5.73;5.23;;;25.40;58.50;;;;;;4938873;29;20453;-90
2021/05/12 11:44:00;;;;;;;6.23;5.77;;;25.40;58.60;;;;;;4938971;29;20557;-90
2021/05/12 11:46:28;;;;;;;9.30;6.70;;;25.40;58.50;;;;;;4938975;29;20449;-91
2021/05/12 11:48:56;;;;;;;6.00;5.23;;;25.50;58.50;;;;;;4939253;29;20540;-90
2021/05/12 11:51:32;;;;;;;5.03;4.67;;;25.40;58.40;;;;;;4938478;29;20824;-91
2021/05/12 11:53:59;;;;;;;5.90;5.40;;;25.50;58.50;;;;;;4937399;29;20532;-91
2021/05/12 11:56:26;;;;;;;7.67;5.73;;;25.50;58.50;;;;;;4937983;29;20605;-91
2021/05/12 11:58:57;;;;;;;6.20;5.17;;;25.50;58.50;;;;;;4937641;29;20565;-91
2021/05/12 12:01:23;;;;;;;5.77;5.10;;;25.50;59.10;;;;;;4936757;29;20447;-93
2021/05/12 12:04:04;;;;;;;5.07;4.73;;;25.50;58.40;;;;;;4936552;29;20457;-91
2021/05/12 12:06:30;;;;;;;6.20;5.10;;;25.50;58.50;;;;;;4936296;29;20526;-91
2021/05/12 12:08:56;;;;;;;5.43;5.00;;;25.50;58.50;;;;;;4939664;29;20450;-92
2021/05/12 12:11:23;;;;;;;5.53;5.03;;;25.60;58.60;;;;;;4940058;29;20453;-91
2021/05/12 12:13:59;;;;;;;5.63;5.23;;;25.50;58.60;;;;;;4939933;29;20810;-91
2021/05/12 12:16:25;;;;;;;5.50;5.10;;;25.50;58.60;;;;;;4939822;29;20453;-91
2021/05/12 12:18:52;;;;;;;5.47;4.97;;;25.50;58.50;;;;;;4939695;29;20601;-90
2021/05/12 12:21:28;;;;;;;4.50;4.20;;;25.50;58.50;;;;;;4939679;29;20520;-90
2021/05/12 12:23:55;;;;;;;5.40;5.00;;;25.50;58.50;;;;;;4939641;29;20445;-90
2021/05/12 12:26:23;;;;;;;4.77;4.47;;;25.50;58.60;;;;;;4940190;29;20472;-90
2021/05/12 12:28:52;;;;;;;4.63;4.33;;;25.50;58.60;;;;;;4939517;29;20442;-90
2021/05/12 12:31:21;;;;;;;4.93;4.40;;;25.50;58.60;;;;;;4939453;29;20439;-90
2021/05/12 12:34:17;;;;;;;4.80;4.40;;;25.50;58.60;;;;;;4939294;29;20541;-92
2021/05/12 12:37:04;;;;;;;4.27;3.97;;;25.50;58.50;;;;;;4939058;29;20547;-88
2021/05/12 12:39:50;;;;;;;4.83;4.40;;;25.60;59.00;;;;;;4939269;29;21047;-89
2021/05/12 12:42:22;;;;;;;4.10;3.90;;;25.50;58.80;;;;;;4939210;29;20932;-89
2021/05/12 12:44:49;;;;;;;4.70;4.30;;;25.50;58.90;;;;;;4939378;29;20490;-88
2021/05/12 12:47:17;;;;;;;4.00;3.70;;;25.50;58.90;;;;;;4939086;29;20446;-89
2021/05/12 12:49:50;;;;;;;4.07;3.77;;;25.50;59.00;;;;;;4940610;29;20466;-89
2021/05/12 12:52:20;;;;;;;4.97;4.37;;;25.50;58.90;;;;;;4939293;29;20492;-89